Alviso, California
Current Conditions -  °F | °C
As of 7:56 PM on Friday 31 Oct 2014 (Local Time) from KNUQ Reporting Station
Overcast Overcast  
Wind Chill: 57°   Ceiling: 10000
Heat Index: 57°   Visibility: 10mi
Dew Point: 55°   Wind: 5mph
Humidity: 93%   Direction: 190°S
Pressure: 29.79"   Gusts: NA
Location:  37.43°N, 121.97°W
Report Text: KNUQ 010256Z AUTO 19004KT 10SM FEW025 OVC100 14/13 A2979 RMK AO2 SLP090 T01390128 55003 TSNO
Loading
Personal Weather Stations






























Interactive Weather Map
Tropical Storm Tracking
New forecast layout! Learn more

10-Day Weather Forecast

Advertisements
Track Severe Weather on mobile